Time;durP1;ratioP1;P1;durP2;ratioP2;P2;SDS_P1;SDS_P2;PMS_P1;PMS_P2;Temp;Humidity;BMP_temperature;BMP_pressure;BME280_temperature;BME280_humidity;BME280_pressure;Samples;Min_cycle;Max_cycle;Signal;HPM_P1;HPM_P2
2021/09/09 05:01:25;;;;;;;3.88;3.58;;;;;;;12.88;93.81;95272.09;5615515;23;20106;-85
2021/09/09 05:03:51;;;;;;;5.90;4.28;;;;;;;12.94;93.64;95276.56;4888007;29;20023;-86
2021/09/09 05:06:16;;;;;;;4.40;4.00;;;;;;;12.88;93.43;95273.88;4901131;29;20202;-87
2021/09/09 05:08:41;;;;;;;9.65;4.05;;;;;;;12.75;94.42;95279.66;4896532;29;20024;-85
2021/09/09 05:11:09;;;;;;;4.22;3.90;;;;;;;12.74;94.94;95278.06;4909130;29;20038;-88
2021/09/09 05:13:34;;;;;;;8.90;4.13;;;;;;;12.72;95.56;95268.81;4909108;29;20031;-87
2021/09/09 05:16:00;;;;;;;8.10;3.30;;;;;;;13.11;94.31;95266.84;4919502;29;20062;-86
2021/09/09 05:18:25;;;;;;;5.75;3.72;;;;;;;12.77;94.51;95262.13;4908165;29;20047;-87
2021/09/09 05:20:50;;;;;;;9.82;3.88;;;;;;;13.19;93.07;95266.78;4885501;29;20521;-88
2021/09/09 05:23:16;;;;;;;6.93;3.70;;;;;;;13.51;91.79;95268.22;4911368;29;20024;-86
2021/09/09 05:25:42;;;;;;;16.00;4.68;;;;;;;13.63;91.90;95264.97;4911539;29;20034;-88
2021/09/09 05:28:07;;;;;;;11.75;4.03;;;;;;;13.57;91.47;95252.69;4902024;29;20043;-86
2021/09/09 05:30:32;;;;;;;7.18;3.45;;;;;;;13.66;91.10;95254.19;4900778;29;20837;-86
2021/09/09 05:32:58;;;;;;;11.65;3.60;;;;;;;13.94;90.69;95253.50;4916725;29;20067;-84
2021/09/09 05:35:23;;;;;;;6.03;3.45;;;;;;;14.14;90.15;95252.72;4913166;29;20512;-84
2021/09/09 05:37:49;;;;;;;6.43;3.35;;;;;;;14.43;88.70;95251.84;4934646;29;20024;-83
2021/09/09 05:40:14;;;;;;;6.72;2.75;;;;;;;14.45;87.17;95252.44;4916655;29;20513;-81
2021/09/09 05:42:40;;;;;;;5.00;3.08;;;;;;;14.56;88.41;95253.75;4898514;29;20119;-82
2021/09/09 05:45:07;;;;;;;4.35;2.47;;;;;;;14.39;86.98;95249.78;4915743;29;20095;-81
2021/09/09 05:47:32;;;;;;;6.53;2.83;;;;;;;14.58;87.78;95249.94;4885356;29;20047;-82
2021/09/09 05:49:58;;;;;;;5.32;2.50;;;;;;;14.55;86.79;95244.31;4913876;29;20059;-82
2021/09/09 05:52:23;;;;;;;4.63;2.60;;;;;;;14.67;87.08;95248.03;4911894;29;20036;-82
2021/09/09 05:54:49;;;;;;;7.72;2.60;;;;;;;14.76;87.27;95244.31;4897561;29;20024;-82
2021/09/09 05:57:14;;;;;;;4.60;3.10;;;;;;;14.99;86.86;95239.66;4896323;29;20032;-82
2021/09/09 05:59:39;;;;;;;8.07;3.20;;;;;;;14.95;86.08;95250.66;4905843;29;20039;-82
2021/09/09 06:02:06;;;;;;;5.03;3.40;;;;;;;15.01;85.51;95248.09;4907098;29;20054;-82
2021/09/09 06:04:34;;;;;;;4.65;3.15;;;;;;;15.10;85.75;95238.31;4931186;29;20035;-81
2021/09/09 06:07:00;;;;;;;6.95;3.22;;;;;;;15.28;85.37;95252.47;4917293;29;20504;-82
2021/09/09 06:09:25;;;;;;;4.03;2.50;;;;;;;15.28;83.17;95244.63;4929437;29;20126;-83
2021/09/09 06:11:51;;;;;;;3.88;2.47;;;;;;;15.41;82.32;95241.28;4934235;29;20039;-84
2021/09/09 06:14:16;;;;;;;3.85;2.20;;;;;;;15.57;81.51;95240.22;4932870;29;20542;-81
2021/09/09 06:16:41;;;;;;;4.75;2.20;;;;;;;15.60;81.42;95245.06;4932663;29;20486;-82
2021/09/09 06:19:07;;;;;;;2.63;2.20;;;;;;;15.63;80.41;95247.28;4932169;29;20028;-83
2021/09/09 06:21:32;;;;;;;7.95;2.10;;;;;;;15.58;79.40;95237.41;4912073;29;20055;-80
2021/09/09 06:23:58;;;;;;;3.85;2.28;;;;;;;15.73;79.50;95238.06;4913713;29;20024;-82
2021/09/09 06:26:23;;;;;;;2.00;1.80;;;;;;;15.70;79.42;95235.06;4927771;29;20024;-83
2021/09/09 06:28:49;;;;;;;1.92;1.60;;;;;;;15.80;79.36;95245.91;4928986;29;20028;-82
2021/09/09 06:31:14;;;;;;;8.40;1.80;;;;;;;15.77;79.64;95235.88;4927544;29;20036;-83
2021/09/09 06:33:40;;;;;;;3.25;2.00;;;;;;;15.79;79.12;95239.09;4924855;29;20144;-82
2021/09/09 06:36:05;;;;;;;4.47;1.98;;;;;;;15.76;79.33;95239.50;4928031;29;20051;-80
2021/09/09 06:38:31;;;;;;;2.78;1.92;;;;;;;15.70;78.83;95235.84;4928109;29;20036;-82
2021/09/09 06:40:57;;;;;;;3.92;2.10;;;;;;;15.75;78.85;95235.25;4889730;29;20513;-79
2021/09/09 06:43:22;;;;;;;4.53;2.08;;;;;;;15.75;78.84;95237.88;4921082;29;20036;-86
2021/09/09 06:45:47;;;;;;;3.00;1.95;;;;;;;15.89;79.03;95242.16;4913797;29;20057;-86
2021/09/09 06:48:13;;;;;;;3.17;1.98;;;;;;;15.80;78.41;95241.50;4910803;29;20053;-85
2021/09/09 06:50:39;;;;;;;3.28;2.22;;;;;;;15.86;78.06;95234.69;4898930;29;20039;-86
2021/09/09 06:53:04;;;;;;;3.10;1.88;;;;;;;15.82;77.88;95249.16;4914924;29;20036;-85
2021/09/09 06:55:30;;;;;;;3.50;1.70;;;;;;;15.93;78.41;95239.94;4930879;29;20024;-87
2021/09/09 06:57:57;;;;;;;4.93;2.10;;;;;;;15.85;78.34;95237.50;4932211;29;20032;-87
2021/09/09 07:00:24;;;;;;;9.88;2.15;;;;;;;15.81;78.27;95243.13;4930529;29;20047;-87
2021/09/09 07:02:49;;;;;;;3.78;1.83;;;;;;;16.01;77.86;95248.41;4894598;29;20072;-87
2021/09/09 07:05:15;;;;;;;6.30;2.42;;;;;;;15.89;78.16;95249.19;4908355;29;20506;-86
2021/09/09 07:07:40;;;;;;;4.97;2.00;;;;;;;15.87;78.34;95253.78;4910030;29;20036;-86
2021/09/09 07:10:07;;;;;;;4.53;2.28;;;;;;;15.90;78.91;95262.03;4919552;29;20462;-86
2021/09/09 07:12:32;;;;;;;2.67;2.30;;;;;;;15.95;78.76;95259.66;4916346;29;20446;-85
2021/09/09 07:14:58;;;;;;;5.45;2.28;;;;;;;15.76;79.29;95260.38;4909167;29;20024;-87
2021/09/09 07:17:23;;;;;;;4.50;2.25;;;;;;;15.90;79.03;95269.06;4909230;29;20031;-86
2021/09/09 07:19:48;;;;;;;6.82;2.15;;;;;;;15.68;79.73;95263.97;4901242;29;20039;-86
2021/09/09 07:22:14;;;;;;;3.83;2.47;;;;;;;15.66;80.70;95262.56;4927432;29;20445;-87
2021/09/09 07:24:39;;;;;;;7.22;3.17;;;;;;;15.57;81.54;95267.09;4928641;29;20032;-88
2021/09/09 07:27:05;;;;;;;10.07;2.63;;;;;;;15.53;81.76;95267.72;4927045;29;20032;-85
2021/09/09 07:29:30;;;;;;;7.43;2.15;;;;;;;15.65;82.71;95271.38;4931482;29;20024;-85
2021/09/09 07:31:56;;;;;;;8.27;2.63;;;;;;;15.52;81.94;95271.31;4945588;28;20039;-83
2021/09/09 07:34:21;;;;;;;5.10;2.40;;;;;;;15.50;83.02;95275.94;4931635;29;20043;-86
2021/09/09 07:36:47;;;;;;;2.83;2.28;;;;;;;15.47;83.29;95273.66;4915141;29;20036;-86
2021/09/09 07:39:12;;;;;;;3.63;2.40;;;;;;;15.43;83.47;95269.81;4929045;29;20039;-86
2021/09/09 07:41:38;;;;;;;3.92;2.63;;;;;;;15.46;83.77;95278.06;4927281;29;20102;-88
2021/09/09 07:44:03;;;;;;;3.88;2.45;;;;;;;15.42;85.62;95276.03;4909834;29;20024;-82
2021/09/09 07:46:30;;;;;;;5.18;2.45;;;;;;;15.42;85.63;95268.19;4919887;29;20048;-81
2021/09/09 07:48:55;;;;;;;5.97;3.42;;;;;;;15.48;85.98;95283.94;4926247;29;20024;-82
2021/09/09 07:51:22;;;;;;;4.00;2.50;;;;;;;15.35;86.46;95283.03;4927837;29;20546;-82
2021/09/09 07:53:48;;;;;;;5.63;2.90;;;;;;;15.42;86.75;95289.09;4928874;29;20036;-81
2021/09/09 07:56:13;;;;;;;5.82;3.20;;;;;;;15.50;87.57;95281.97;4930289;29;20031;-81
2021/09/09 07:58:39;;;;;;;5.57;3.22;;;;;;;15.52;87.82;95284.34;4945667;29;20027;-81
2021/09/09 08:01:04;;;;;;;3.55;3.13;;;;;;;15.69;88.13;95291.69;4894626;29;20052;-80
2021/09/09 08:03:30;;;;;;;4.47;3.28;;;;;;;15.97;88.66;95286.38;4911715;29;20031;-80
2021/09/09 08:05:55;;;;;;;4.82;3.83;;;;;;;15.76;87.92;95289.13;4936013;29;20043;-82
2021/09/09 08:08:21;;;;;;;3.63;2.75;;;;;;;16.11;87.64;95288.06;4906179;29;20040;-81
2021/09/09 08:10:46;;;;;;;4.13;3.15;;;;;;;15.74;88.60;95280.66;4912441;29;20084;-81
2021/09/09 08:13:12;;;;;;;2.90;2.67;;;;;;;15.57;88.92;95288.00;4911474;29;20036;-80
2021/09/09 08:15:38;;;;;;;7.43;3.15;;;;;;;15.67;89.23;95292.88;4895203;29;20039;-80
2021/09/09 08:18:04;;;;;;;5.05;2.85;;;;;;;15.66;88.58;95293.88;4912161;29;20040;-82
2021/09/09 08:20:29;;;;;;;7.60;2.72;;;;;;;15.64;88.40;95288.03;4918983;29;20606;-82
2021/09/09 08:22:55;;;;;;;3.97;2.38;;;;;;;15.85;88.47;95293.19;4892605;29;20200;-82
2021/09/09 08:25:20;;;;;;;3.92;2.30;;;;;;;16.05;87.99;95295.88;4912770;29;20032;-82
2021/09/09 08:27:46;;;;;;;2.47;2.28;;;;;;;16.40;85.57;95291.34;4909684;29;20036;-82
2021/09/09 08:30:11;;;;;;;3.28;2.00;;;;;;;16.19;85.66;95287.06;4913100;29;20032;-83
2021/09/09 08:32:37;;;;;;;2.88;2.10;;;;;;;16.74;84.34;95285.97;4909900;29;20494;-84
2021/09/09 08:35:03;;;;;;;5.25;2.28;;;;;;;16.47;83.97;95277.25;4894430;29;20114;-83
2021/09/09 08:37:28;;;;;;;4.55;2.40;;;;;;;17.05;84.23;95282.78;4895571;29;20024;-82
2021/09/09 08:39:54;;;;;;;4.18;1.83;;;;;;;16.69;82.37;95277.94;4923093;29;20027;-86
2021/09/09 08:42:19;;;;;;;3.53;1.90;;;;;;;16.75;80.46;95272.72;4914825;29;20086;-82
2021/09/09 08:44:45;;;;;;;5.60;2.00;;;;;;;16.91;81.78;95276.75;4923027;29;20032;-81
2021/09/09 08:47:11;;;;;;;4.50;2.08;;;;;;;17.14;83.04;95282.38;4892171;29;20029;-81
2021/09/09 08:49:36;;;;;;;2.85;1.52;;;;;;;17.10;80.66;95281.16;4912471;29;20039;-83
2021/09/09 08:52:04;;;;;;;2.85;1.60;;;;;;;16.90;81.91;95276.94;4910807;29;20065;-81
2021/09/09 08:54:32;;;;;;;4.95;1.70;;;;;;;16.92;82.38;95277.56;4924449;29;20044;-82
2021/09/09 08:56:57;;;;;;;1.88;1.60;;;;;;;16.97;81.81;95277.75;4925212;29;20039;-82
2021/09/09 08:59:23;;;;;;;3.22;1.30;;;;;;;16.64;82.83;95280.34;4908225;29;20035;-82
2021/09/09 09:02:02;;;;;;;3.97;1.65;;;;;;;16.82;80.77;95276.13;4904775;29;20072;-82
2021/09/09 09:04:28;;;;;;;2.57;1.50;;;;;;;16.78;79.62;95287.19;4908843;29;20045;-82
2021/09/09 09:06:53;;;;;;;3.75;1.70;;;;;;;16.65;81.40;95276.72;4910963;29;20112;-82
2021/09/09 09:09:21;;;;;;;3.92;1.35;;;;;;;16.64;82.06;95280.34;4912998;29;20024;-82
2021/09/09 09:11:49;;;;;;;4.22;1.60;;;;;;;16.78;80.95;95272.31;4885791;29;20128;-82
2021/09/09 09:14:18;;;;;;;2.55;1.70;;;;;;;16.21;80.77;95280.63;4893567;29;20120;-83
2021/09/09 09:16:55;;;;;;;4.32;1.75;;;;;;;16.14;81.13;95271.16;4910873;29;20490;-86
2021/09/09 09:19:23;;;;;;;4.30;1.70;;;;;;;16.19;81.96;95272.19;4908196;29;20040;-83
2021/09/09 09:22:10;;;;;;;3.75;1.65;;;;;;;16.16;81.26;95283.03;4894848;29;20123;-85
2021/09/09 09:24:45;;;;;;;4.25;1.95;;;;;;;16.27;83.00;95279.84;4910012;29;20473;-81
2021/09/09 09:27:21;;;;;;;12.32;2.35;;;;;;;16.30;83.42;95281.25;4928547;29;20023;-82
2021/09/09 09:30:07;;;;;;;2.63;1.83;;;;;;;16.34;84.67;95278.03;4913607;29;20498;-85
2021/09/09 09:32:33;;;;;;;6.13;1.88;;;;;;;16.63;83.49;95273.50;4912176;29;20107;-82
2021/09/09 09:35:09;;;;;;;1.77;1.67;;;;;;;16.84;83.08;95274.13;4912168;29;20937;-83
2021/09/09 09:37:35;;;;;;;1.65;1.55;;;;;;;16.92;83.43;95267.09;4909369;29;20024;-84
2021/09/09 09:40:07;;;;;;;3.40;1.60;;;;;;;16.78;81.13;95266.28;4910732;29;20450;-84
2021/09/09 09:42:33;;;;;;;4.32;2.20;;;;;;;16.68;82.71;95260.63;4910991;29;20040;-83
2021/09/09 09:45:09;;;;;;;4.93;1.55;;;;;;;16.69;82.96;95270.09;4924943;29;20035;-82
2021/09/09 09:47:35;;;;;;;4.38;2.00;;;;;;;16.47;82.04;95261.56;4911845;29;20032;-83
2021/09/09 09:50:00;;;;;;;66.90;53.88;;;;;;;16.77;83.00;95255.00;4894200;29;20110;-84
2021/09/09 09:52:27;;;;;;;5.93;4.93;;;;;;;16.94;82.92;95255.41;4891680;29;20040;-83
2021/09/09 09:54:52;;;;;;;3.85;2.10;;;;;;;16.88;83.64;95256.22;4903539;29;20059;-83
2021/09/09 09:57:19;;;;;;;3.42;1.50;;;;;;;17.22;83.22;95252.53;4925630;29;20028;-84
2021/09/09 09:59:44;;;;;;;2.20;1.58;;;;;;;17.13;80.11;95249.34;4924845;29;20395;-82
2021/09/09 10:02:13;;;;;;;4.93;1.90;;;;;;;16.84;81.19;95245.34;4907554;29;20059;-85
2021/09/09 10:04:43;;;;;;;4.88;2.22;;;;;;;16.85;82.44;95246.16;4909376;29;20032;-83
2021/09/09 10:07:08;;;;;;;;;;;;;;;16.69;82.13;95249.16;4896609;29;20032;-83
2021/09/09 10:09:33;;;;;;;3.50;2.03;;;;;;;16.61;82.73;95244.94;4913140;29;20396;-83
2021/09/09 10:11:59;;;;;;;5.20;2.33;;;;;;;16.49;82.38;95240.47;4912746;29;20035;-82
2021/09/09 10:14:25;;;;;;;3.30;2.40;;;;;;;16.39;83.56;95251.31;4913929;29;20043;-81
2021/09/09 10:16:53;;;;;;;5.40;2.42;;;;;;;16.60;82.97;95232.06;4913021;29;20092;-85
2021/09/09 10:19:27;;;;;;;2.92;1.60;;;;;;;17.07;83.22;95238.88;4897345;29;20031;-83
2021/09/09 10:22:20;;;;;;;3.50;2.08;;;;;;;17.19;83.82;95238.06;4914123;29;20066;-83
2021/09/09 10:24:47;;;;;;;2.55;1.65;;;;;;;16.96;81.68;95234.25;4911093;29;20051;-82
2021/09/09 10:27:32;;;;;;;4.45;1.70;;;;;;;17.27;79.84;95240.44;4898054;29;20040;-84
2021/09/09 10:30:04;;;;;;;4.57;2.78;;;;;;;16.77;81.27;95244.53;4913469;29;20078;-82
2021/09/09 10:32:33;;;;;;;3.13;1.85;;;;;;;16.70;81.10;95237.69;4897743;29;20043;-82
2021/09/09 10:35:20;;;;;;;4.70;2.20;;;;;;;17.13;80.97;95238.06;4914807;29;20040;-82
2021/09/09 10:37:53;;;;;;;3.60;1.50;;;;;;;17.35;80.76;95242.88;4906175;29;20091;-82
2021/09/09 10:40:37;;;;;;;5.72;1.50;;;;;;;17.01;78.58;95247.56;4897781;29;20084;-85
2021/09/09 10:43:06;;;;;;;3.85;1.92;;;;;;;17.05;78.82;95246.94;4927377;29;20036;-82
2021/09/09 10:45:35;;;;;;;2.60;1.87;;;;;;;17.37;79.26;95246.06;4911871;29;20069;-82
2021/09/09 10:48:04;;;;;;;4.07;2.25;;;;;;;17.66;79.04;95239.56;4917377;29;20036;-82
2021/09/09 10:50:29;;;;;;;2.42;1.60;;;;;;;17.51;75.99;95239.00;4927171;29;20032;-81
2021/09/09 10:53:03;;;;;;;2.47;1.30;;;;;;;17.91;74.98;95231.81;4914517;29;20043;-82
2021/09/09 10:55:29;;;;;;;3.63;1.92;;;;;;;17.92;73.21;95225.56;4912237;29;20119;-82
2021/09/09 10:58:21;;;;;;;3.63;1.80;;;;;;;17.97;73.83;95231.00;4897015;29;20115;-82
2021/09/09 11:00:52;;;;;;;4.70;1.67;;;;;;;17.66;72.66;95228.31;4901839;29;20066;-83
2021/09/09 11:03:48;;;;;;;4.53;1.50;;;;;;;18.38;70.22;95226.09;4911587;29;20048;-81
2021/09/09 11:06:20;;;;;;;2.25;1.60;;;;;;;17.89;70.31;95218.91;4921729;29;20537;-82
2021/09/09 11:08:46;;;;;;;3.45;1.38;;;;;;;17.60;73.02;95210.78;4915862;29;20036;-82
2021/09/09 11:11:19;;;;;;;3.15;1.30;;;;;;;18.15;71.81;95217.16;4895738;29;20028;-81
2021/09/09 11:13:44;;;;;;;2.33;1.40;;;;;;;18.24;69.69;95208.03;4911846;29;20470;-82
2021/09/09 11:16:20;;;;;;;5.00;1.80;;;;;;;18.75;67.50;95176.44;4894126;29;20031;-81
2021/09/09 11:18:45;;;;;;;5.75;1.80;;;;;;;18.89;66.84;95204.94;4912103;29;20068;-81
2021/09/09 11:21:11;;;;;;;3.88;1.23;;;;;;;19.77;66.40;95199.41;4894807;29;20028;-81
2021/09/09 11:23:36;;;;;;;1.52;0.88;;;;;;;19.75;64.35;95202.25;4895537;29;20506;-82
2021/09/09 11:26:15;;;;;;;3.90;1.40;;;;;;;19.82;62.48;95207.44;4911333;29;20510;-81
2021/09/09 11:28:41;;;;;;;3.53;1.77;;;;;;;19.10;64.64;95200.31;4895586;29;20036;-83
2021/09/09 11:31:12;;;;;;;5.00;1.35;;;;;;;19.13;65.17;95198.06;4896819;29;20048;-84
2021/09/09 11:33:53;;;;;;;4.47;1.60;;;;;;;19.65;64.14;95191.44;4886988;29;20040;-80
2021/09/09 11:36:19;;;;;;;4.22;1.40;;;;;;;19.65;64.41;95180.16;4893607;29;20032;-80
2021/09/09 11:38:45;;;;;;;3.97;1.20;;;;;;;20.04;65.06;95176.19;4877012;29;20410;-83
2021/09/09 11:41:17;;;;;;;2.83;1.60;;;;;;;19.58;63.41;95174.16;4909038;29;20028;-80
2021/09/09 11:44:04;;;;;;;6.07;2.30;;;;;;;18.90;63.31;95176.88;4878468;29;20112;-81
2021/09/09 11:46:31;;;;;;;3.15;2.22;;;;;;;19.17;64.10;95180.84;4897832;29;20044;-83
2021/09/09 11:48:56;;;;;;;5.78;2.20;;;;;;;18.99;63.28;95175.59;4915311;29;20509;-84
2021/09/09 11:51:52;;;;;;;2.17;1.92;;;;;;;18.85;64.41;95176.72;4930895;29;20158;-81
2021/09/09 11:54:26;;;;;;;3.13;2.08;;;;;;;19.11;63.70;95173.03;4897586;29;20050;-85
2021/09/09 11:57:00;;;;;;;5.85;2.10;;;;;;;19.48;63.08;95179.13;4899619;29;20165;-86
2021/09/09 11:59:26;;;;;;;3.92;2.20;;;;;;;19.43;63.42;95175.34;4893359;29;20483;-84
2021/09/09 12:01:56;;;;;;;2.75;2.17;;;;;;;19.36;62.72;95171.16;4903258;29;20086;-81
2021/09/09 12:04:22;;;;;;;3.92;1.90;;;;;;;19.43;62.21;95172.72;4894219;29;20467;-82
2021/09/09 12:06:47;;;;;;;3.50;1.95;;;;;;;19.63;61.93;95161.16;4916931;29;20055;-84
2021/09/09 12:09:36;;;;;;;2.40;1.80;;;;;;;19.49;61.06;95164.97;4910903;29;20173;-82
2021/09/09 12:12:02;;;;;;;;;;;;;;;19.52;63.25;95167.16;4911252;29;20035;-83
2021/09/09 12:14:28;;;;;;;2.95;1.60;;;;;;;19.38;62.17;95167.28;4913230;29;19922;-83
2021/09/09 12:17:13;;;;;;;2.90;1.77;;;;;;;19.37;62.15;95163.06;4910007;29;20032;-84
2021/09/09 12:19:51;;;;;;;5.55;2.15;;;;;;;19.17;62.75;95166.94;4901265;29;20383;-84
2021/09/09 12:22:17;;;;;;;2.13;1.80;;;;;;;19.07;64.70;95170.03;4930136;29;20038;-83
2021/09/09 12:24:42;;;;;;;7.00;2.03;;;;;;;18.74;65.87;95174.81;4913971;29;20023;-84
2021/09/09 12:27:15;;;;;;;4.07;2.28;;;;;;;18.68;67.72;95167.81;4929056;29;20071;-83
2021/09/09 12:29:44;;;;;;;4.63;2.10;;;;;;;18.72;67.45;95161.09;4927963;29;20028;-82
2021/09/09 12:32:28;;;;;;;1.97;1.77;;;;;;;18.62;64.73;95160.78;4926761;29;20420;-85
2021/09/09 12:35:18;;;;;;;3.10;2.13;;;;;;;18.75;65.47;95166.69;4905425;29;20064;-83
2021/09/09 12:37:43;;;;;;;2.55;2.13;;;;;;;18.85;66.51;95158.34;4925938;29;20071;-82
2021/09/09 12:40:10;;;;;;;8.48;3.72;;;;;;;19.03;64.43;95154.94;4910198;29;20059;-84
2021/09/09 12:42:37;;;;;;;4.32;2.03;;;;;;;18.63;64.28;95125.63;4908662;29;20020;-81
2021/09/09 12:45:08;;;;;;;5.53;2.25;;;;;;;19.05;65.65;95158.94;4912214;29;20475;-82
2021/09/09 12:47:33;;;;;;;4.10;2.10;;;;;;;19.07;66.97;95156.91;4909106;29;20032;-82
2021/09/09 12:50:32;;;;;;;2.70;2.25;;;;;;;19.04;68.41;95154.72;4911692;29;20028;-83
2021/09/09 12:52:57;;;;;;;4.22;2.00;;;;;;;18.84;69.67;95151.50;4895085;29;20586;-81
2021/09/09 12:55:23;;;;;;;4.03;2.13;;;;;;;18.72;68.90;95151.38;4925076;29;20028;-80
2021/09/09 12:57:48;;;;;;;2.33;2.13;;;;;;;18.52;68.82;95152.59;4912215;29;20517;-84
2021/09/09 13:00:14;;;;;;;5.45;2.53;;;;;;;18.39;68.95;95158.72;4908845;29;20035;-82
2021/09/09 13:02:40;;;;;;;5.05;3.00;;;;;;;18.36;70.03;95151.28;4910415;29;20059;-82
2021/09/09 13:05:05;;;;;;;2.88;2.17;;;;;;;18.52;69.43;95157.84;4910686;29;20044;-83
2021/09/09 13:07:32;;;;;;;3.22;2.63;;;;;;;18.38;69.79;95150.03;4894171;29;20124;-82
2021/09/09 13:09:57;;;;;;;3.88;2.80;;;;;;;18.48;69.91;95157.44;4906826;29;20032;-83
2021/09/09 13:12:23;;;;;;;2.20;2.00;;;;;;;18.31;70.50;95146.66;4890910;29;20154;-83
2021/09/09 13:14:48;;;;;;;5.75;2.53;;;;;;;18.22;70.10;95158.44;4893756;29;20029;-82
2021/09/09 13:17:14;;;;;;;2.63;2.42;;;;;;;18.14;71.47;95156.06;4890396;29;20040;-84
2021/09/09 13:19:39;;;;;;;3.95;3.00;;;;;;;17.87;70.20;95157.25;4905706;29;20410;-84
2021/09/09 13:22:05;;;;;;;4.10;2.35;;;;;;;17.89;69.77;95149.97;4929695;29;20032;-83
2021/09/09 13:24:30;;;;;;;3.90;2.63;;;;;;;17.76;68.98;95153.47;4927649;29;20016;-84
2021/09/09 13:26:56;;;;;;;5.10;2.40;;;;;;;17.76;70.96;95147.41;4909881;29;20092;-83
2021/09/09 13:29:21;;;;;;;2.85;2.40;;;;;;;17.69;70.88;95150.06;4911028;29;20028;-83
2021/09/09 13:31:47;;;;;;;7.60;2.90;;;;;;;17.70;72.68;95156.13;4910583;29;20025;-82
2021/09/09 13:34:12;;;;;;;5.07;2.70;;;;;;;17.52;74.87;95158.59;4909274;29;20517;-81
2021/09/09 13:36:42;;;;;;;3.22;2.95;;;;;;;17.45;77.37;95158.63;4910805;29;20104;-81
2021/09/09 13:39:07;;;;;;;3.58;3.28;;;;;;;17.45;77.37;95163.06;4909130;29;20071;-80
2021/09/09 13:41:33;;;;;;;4.10;3.33;;;;;;;17.23;78.14;95167.78;4930471;29;20036;-81
2021/09/09 13:43:58;;;;;;;5.28;3.55;;;;;;;17.31;77.21;95172.75;4928902;29;20048;-79
2021/09/09 13:46:24;;;;;;;4.72;2.78;;;;;;;17.10;77.41;95178.28;4930010;29;20039;-79
2021/09/09 13:48:49;;;;;;;4.40;3.22;;;;;;;17.09;81.54;95172.22;4917537;29;20482;-80
2021/09/09 13:51:14;;;;;;;5.82;3.30;;;;;;;17.08;81.56;95180.31;4913970;29;20489;-80
2021/09/09 13:53:40;;;;;;;3.65;3.35;;;;;;;17.06;82.90;95170.03;4912258;29;20028;-81
2021/09/09 13:56:07;;;;;;;4.13;3.17;;;;;;;17.02;83.19;95181.91;4931475;29;20050;-79
2021/09/09 13:58:32;;;;;;;5.15;3.28;;;;;;;17.08;83.01;95177.69;4917926;29;20095;-81
2021/09/09 14:00:57;;;;;;;4.13;3.10;;;;;;;17.04;81.41;95177.28;4898194;29;20048;-80
2021/09/09 14:03:23;;;;;;;4.20;3.67;;;;;;;16.86;82.80;95175.28;4925138;29;20040;-82
2021/09/09 14:05:48;;;;;;;4.28;3.88;;;;;;;16.88;84.27;95177.72;4933210;29;20031;-81
2021/09/09 14:08:14;;;;;;;10.82;4.07;;;;;;;16.91;84.57;95166.03;4891956;29;20029;-80
2021/09/09 14:10:39;;;;;;;4.03;3.30;;;;;;;16.91;85.02;95171.28;4895221;29;20092;-78
2021/09/09 14:13:05;;;;;;;3.63;2.83;;;;;;;16.78;85.94;95162.44;4917494;29;20024;-80
2021/09/09 14:15:31;;;;;;;7.45;3.42;;;;;;;16.53;86.96;95166.66;4913289;29;20048;-79
2021/09/09 14:17:57;;;;;;;4.90;3.13;;;;;;;16.60;86.40;95174.53;4912607;29;20028;-80
2021/09/09 14:20:22;;;;;;;6.25;2.85;;;;;;;16.43;85.72;95162.81;4898084;29;20406;-86
2021/09/09 14:22:48;;;;;;;3.97;2.47;;;;;;;16.33;85.35;95171.88;4911834;29;20051;-83
2021/09/09 14:25:13;;;;;;;6.15;2.90;;;;;;;16.24;85.76;95169.66;4914151;29;20024;-81
2021/09/09 14:27:39;;;;;;;4.68;2.47;;;;;;;16.09;85.89;95156.75;4914290;29;20032;-81
2021/09/09 14:30:05;;;;;;;5.43;2.53;;;;;;;16.05;86.23;95173.88;4897706;29;20024;-82
2021/09/09 14:32:31;;;;;;;2.47;2.17;;;;;;;15.93;88.31;95164.16;4917056;29;20042;-83
2021/09/09 14:34:56;;;;;;;6.43;2.78;;;;;;;15.77;90.64;95166.16;4915612;29;20039;-86
2021/09/09 14:37:22;;;;;;;5.00;2.63;;;;;;;15.57;93.24;95172.34;4932294;29;20593;-83
2021/09/09 14:39:48;;;;;;;7.05;2.92;;;;;;;15.51;93.45;95162.69;4913031;29;20036;-85
2021/09/09 14:42:13;;;;;;;7.35;3.25;;;;;;;15.63;94.19;95163.72;4914223;29;20488;-80
2021/09/09 14:44:39;;;;;;;4.57;3.33;;;;;;;15.52;95.05;95157.25;4909516;29;20110;-84
2021/09/09 14:47:04;;;;;;;5.07;3.40;;;;;;;15.55;95.84;95156.03;4913440;29;20039;-78
2021/09/09 14:49:36;;;;;;;5.45;3.28;;;;;;;15.37;95.81;95158.38;4913563;29;20043;-86
2021/09/09 14:52:02;;;;;;;4.10;3.20;;;;;;;15.44;94.78;95152.19;4927017;29;20032;-84
2021/09/09 14:54:31;;;;;;;8.75;3.30;;;;;;;15.37;94.09;95153.13;4917152;29;20047;-82
2021/09/09 14:56:57;;;;;;;5.82;3.50;;;;;;;15.37;94.64;95153.94;4912010;29;20055;-83
2021/09/09 14:59:22;;;;;;;5.60;3.95;;;;;;;15.26;94.30;95146.66;4897259;29;20036;-83
2021/09/09 15:01:47;;;;;;;6.80;4.00;;;;;;;15.28;94.51;95157.72;4895632;29;20478;-80
2021/09/09 15:04:13;;;;;;;5.32;3.05;;;;;;;15.25;93.86;95139.84;4897436;29;20411;-83
2021/09/09 15:06:39;;;;;;;3.72;3.03;;;;;;;15.25;95.04;95156.28;4912495;29;20032;-88
2021/09/09 15:09:06;;;;;;;4.38;3.47;;;;;;;15.17;95.06;95151.25;4912573;29;20035;-84
2021/09/09 15:11:32;;;;;;;6.32;3.63;;;;;;;15.13;94.56;95149.22;4904162;29;20030;-83
2021/09/09 15:14:01;;;;;;;3.92;3.40;;;;;;;15.16;95.49;95154.03;4908625;29;20033;-86
2021/09/09 15:16:27;;;;;;;4.70;3.80;;;;;;;15.11;95.25;95146.81;4895282;29;20522;-85
2021/09/09 15:18:52;;;;;;;5.38;4.22;;;;;;;15.14;93.68;95148.22;4916335;29;20126;-82
2021/09/09 15:21:21;;;;;;;6.20;4.53;;;;;;;15.12;94.93;95148.41;4913212;29;20831;-84
2021/09/09 15:23:46;;;;;;;3.78;3.33;;;;;;;15.08;94.16;95149.81;4913715;29;20041;-84
2021/09/09 15:26:11;;;;;;;6.32;3.50;;;;;;;15.08;94.21;95146.38;4898800;29;20028;-85
2021/09/09 15:28:37;;;;;;;2.83;2.40;;;;;;;15.07;92.81;95139.56;4909887;29;20103;-83
2021/09/09 15:31:02;;;;;;;4.95;2.53;;;;;;;15.03;93.49;95133.91;4908025;29;20035;-86
2021/09/09 15:33:28;;;;;;;8.40;2.90;;;;;;;14.97;93.42;95137.28;4909620;29;20036;-84
2021/09/09 15:35:53;;;;;;;6.47;3.40;;;;;;;15.06;94.02;95143.16;4924207;29;20503;-83
2021/09/09 15:38:19;;;;;;;6.20;3.95;;;;;;;14.97;93.21;95134.69;4911308;29;20024;-83
2021/09/09 15:40:44;;;;;;;3.88;3.45;;;;;;;14.93;93.11;95136.06;4911890;29;21088;-85
2021/09/09 15:43:10;;;;;;;6.13;3.17;;;;;;;15.01;91.38;95140.31;4908189;29;20028;-79
2021/09/09 15:45:36;;;;;;;2.67;2.00;;;;;;;15.00;90.58;95139.53;4907838;29;20849;-86
2021/09/09 15:48:03;;;;;;;2.95;2.50;;;;;;;15.02;91.20;95137.53;4901436;29;20028;-87
2021/09/09 15:50:28;;;;;;;4.07;2.67;;;;;;;15.04;91.68;95140.75;4895589;29;20043;-85
2021/09/09 15:52:54;;;;;;;6.57;2.42;;;;;;;14.99;90.70;95137.94;4915426;29;20036;-85
2021/09/09 15:55:22;;;;;;;5.35;2.65;;;;;;;15.05;91.57;95139.75;4912455;29;20038;-87
2021/09/09 15:57:47;;;;;;;3.05;2.75;;;;;;;15.05;91.15;95136.34;4910939;29;20309;-88
2021/09/09 16:00:13;;;;;;;2.30;2.10;;;;;;;14.97;92.17;95133.88;4894754;29;20116;-84
2021/09/09 16:02:39;;;;;;;5.88;2.38;;;;;;;14.95;92.02;95136.69;4924704;29;20114;-87
2021/09/09 16:05:06;;;;;;;4.20;2.78;;;;;;;15.05;92.73;95131.13;4911845;29;20068;-86
2021/09/09 16:07:31;;;;;;;3.25;2.42;;;;;;;15.03;92.33;95128.69;4927969;29;20073;-86
2021/09/09 16:09:57;;;;;;;5.47;2.80;;;;;;;15.08;92.98;95131.53;4909715;29;20020;-86
2021/09/09 16:12:23;;;;;;;4.50;3.45;;;;;;;15.06;95.94;95133.53;4918001;29;20049;-85
2021/09/09 16:14:48;;;;;;;5.72;3.75;;;;;;;14.97;97.76;95137.28;4911176;29;20024;-85
2021/09/09 16:17:14;;;;;;;4.55;2.53;;;;;;;15.00;97.01;95136.91;4927589;29;20040;-86
2021/09/09 16:19:39;;;;;;;4.57;3.38;;;;;;;15.00;96.79;95136.91;4928920;29;20043;-85
2021/09/09 16:22:05;;;;;;;6.28;2.72;;;;;;;14.95;98.51;95148.94;4915113;29;20016;-85
2021/09/09 16:24:30;;;;;;;7.53;3.40;;;;;;;14.98;99.15;95158.97;4929883;29;20034;-85
2021/09/09 16:26:56;;;;;;;8.57;4.22;;;;;;;14.92;100.00;95152.72;4899297;29;20180;-85
2021/09/09 16:29:21;;;;;;;4.72;3.65;;;;;;;14.79;100.00;95150.03;4918776;29;20031;-86
2021/09/09 16:31:47;;;;;;;4.57;3.05;;;;;;;14.87;98.08;95149.06;4910635;29;20039;-86
2021/09/09 16:34:12;;;;;;;4.80;3.92;;;;;;;14.82;99.65;95141.84;4913229;29;20391;-86
2021/09/09 16:36:38;;;;;;;3.53;2.95;;;;;;;14.86;95.58;95132.63;4926555;29;20395;-86